Terminal Aerodrome Forecast
Issued by NWS Melbourne, FL

Home | Current Version | Previous Version | Text Only | Print | Product List | Glossary On
Versions: 1 2 3 4 5 6 7 8 9 10 11 12 13
000
FTUS42 KMLB 032349 RRA
TAFMLB
TAF
KMLB 032349Z 0400/0424 20008KT P6SM SCT120
     FM041400 21006KT P6SM SCT030 SCT100 OVC250
     FM041800 14009KT P6SM BKN250
     FM042000 13010KT P6SM VCTS SCT035CB BKN120=

USA.gov is the U.S. government's official web portal to all federal, state and local government web resources and services.